createdAt,value
2023-02-06T00:00:54.290Z,101577.34
2023-02-06T00:03:22.262Z,101580.25
2023-02-06T00:06:00.039Z,101574.38
2023-02-06T00:08:29.305Z,101562.69
2023-02-06T00:10:57.313Z,101560.41
2023-02-06T00:13:25.238Z,101553.84
2023-02-06T00:15:53.189Z,101556.59
2023-02-06T00:18:21.101Z,101539.31
2023-02-06T00:20:49.032Z,101534.38
2023-02-06T00:23:21.659Z,101532.09
2023-02-06T00:25:49.579Z,101528.97
2023-02-06T00:28:17.638Z,101529.03
2023-02-06T00:30:48.601Z,101532.00
2023-02-06T00:33:16.704Z,101527.63
2023-02-06T00:35:44.626Z,101529.53
2023-02-06T00:38:12.850Z,101531.91
2023-02-06T00:40:42.164Z,101521.56
2023-02-06T00:43:12.637Z,101517.84
2023-02-06T00:45:40.574Z,101514.91
2023-02-06T00:48:09.195Z,101517.19
2023-02-06T00:50:37.188Z,101513.88
2023-02-06T00:53:05.119Z,101508.06
2023-02-06T00:55:33.351Z,101502.19
2023-02-06T00:58:06.231Z,101494.56
2023-02-06T01:00:34.417Z,101489.00
2023-02-06T01:03:05.432Z,101480.63
2023-02-06T01:05:33.486Z,101476.44
2023-02-06T01:08:04.265Z,101478.06
2023-02-06T01:10:32.450Z,101475.22
2023-02-06T01:13:00.445Z,101478.63
2023-02-06T01:15:30.239Z,101469.59
2023-02-06T01:17:58.464Z,101473.41
2023-02-06T01:20:26.455Z,101477.50
2023-02-06T01:22:54.600Z,101482.81
2023-02-06T01:25:22.570Z,101478.25
2023-02-06T01:27:50.602Z,101475.50
2023-02-06T01:30:18.803Z,101476.44
2023-02-06T01:32:48.107Z,101473.88
2023-02-06T01:35:16.061Z,101469.69
2023-02-06T01:37:44.077Z,101465.06
2023-02-06T01:40:15.802Z,101451.66
2023-02-06T01:42:44.499Z,101452.03
2023-02-06T01:45:43.787Z,101457.34
2023-02-06T01:48:18.521Z,101451.47
2023-02-06T01:50:51.168Z,101453.75
2023-02-06T01:53:20.122Z,101454.53
2023-02-06T01:55:50.881Z,101447.88
2023-02-06T01:58:25.478Z,101448.34
2023-02-06T02:00:53.550Z,101447.69
2023-02-06T02:03:23.371Z,101448.16
2023-02-06T02:05:52.375Z,101435.63
2023-02-06T02:08:26.680Z,101427.00
2023-02-06T02:10:54.778Z,101434.13
2023-02-06T02:13:22.755Z,101431.75
2023-02-06T02:15:59.621Z,101438.78
2023-02-06T02:18:42.088Z,101436.38
2023-02-06T02:21:46.084Z,101443.72
2023-02-06T02:24:23.474Z,101435.16
2023-02-06T02:27:35.141Z,101445.97
2023-02-06T02:30:40.383Z,101424.53
2023-02-06T02:33:36.129Z,101422.63
2023-02-06T02:36:14.639Z,101422.81
2023-02-06T02:38:54.705Z,101418.63
2023-02-06T02:41:29.891Z,101409.34
2023-02-06T02:44:05.704Z,101401.38
2023-02-06T02:46:37.558Z,101405.06
2023-02-06T02:49:09.690Z,101412.25
2023-02-06T02:51:40.148Z,101418.78
2023-02-06T02:54:09.120Z,101413.78
2023-02-06T02:56:37.184Z,101412.38
2023-02-06T02:59:12.071Z,101410.66
2023-02-06T03:01:44.016Z,101417.09
2023-02-06T03:04:17.596Z,101398.88
2023-02-06T03:07:01.752Z,101398.03
2023-02-06T03:09:41.100Z,101402.09
2023-02-06T03:12:17.427Z,101405.91
2023-02-06T03:14:51.792Z,101398.13
2023-02-06T03:17:27.350Z,101391.75
2023-02-06T03:19:57.962Z,101383.78
2023-02-06T03:22:29.455Z,101380.19
2023-02-06T03:24:58.949Z,101371.13
2023-02-06T03:27:29.541Z,101366.69
2023-02-06T03:29:59.899Z,101363.00
2023-02-06T03:32:30.893Z,101362.81
2023-02-06T03:35:03.984Z,101358.66
2023-02-06T03:37:34.024Z,101369.63
2023-02-06T03:40:07.353Z,101356.28
2023-02-06T03:42:40.078Z,101366.28
2023-02-06T03:45:16.173Z,101360.19
2023-02-06T03:47:46.050Z,101354.88
2023-02-06T03:50:16.116Z,101358.22
2023-02-06T03:52:49.991Z,101330.34
2023-02-06T03:55:21.279Z,101365.16
2023-02-06T03:57:52.835Z,101358.44
2023-02-06T04:00:21.402Z,101361.06
2023-02-06T04:02:50.189Z,101359.66
2023-02-06T04:05:19.561Z,101351.59
2023-02-06T04:07:49.015Z,101348.91
2023-02-06T04:10:17.254Z,101346.84
2023-02-06T04:12:45.327Z,101340.94
2023-02-06T04:15:13.281Z,101341.84
2023-02-06T04:17:57.553Z,101332.06
2023-02-06T04:20:27.114Z,101316.16
2023-02-06T04:22:56.415Z,101313.09
2023-02-06T04:25:24.630Z,101305.38
2023-02-06T04:27:54.876Z,101295.34
2023-02-06T04:30:23.011Z,101294.50
2023-02-06T04:32:51.068Z,101289.47
2023-02-06T04:35:20.474Z,101294.47
2023-02-06T04:37:48.688Z,101299.88
2023-02-06T04:40:18.810Z,101300.47
2023-02-06T04:42:46.802Z,101297.13
2023-02-06T04:45:14.728Z,101299.09
2023-02-06T04:47:42.695Z,101289.44
2023-02-06T04:50:11.595Z,101290.22
2023-02-06T04:52:39.554Z,101295.19
2023-02-06T04:55:08.216Z,101299.09
2023-02-06T04:57:37.751Z,101310.03
2023-02-06T05:00:07.197Z,101305.84
2023-02-06T05:02:37.645Z,101303.38
2023-02-06T05:05:09.436Z,101307.38
2023-02-06T05:07:39.687Z,101300.47
2023-02-06T05:10:09.252Z,101294.47
2023-02-06T05:12:38.791Z,101294.81
2023-02-06T05:15:07.609Z,101296.31
2023-02-06T05:17:35.833Z,101290.41
2023-02-06T05:20:07.485Z,101292.66
2023-02-06T05:22:35.607Z,101285.72
2023-02-06T05:25:03.694Z,101292.44
2023-02-06T05:27:31.708Z,101293.53
2023-02-06T05:30:01.114Z,101295.41
2023-02-06T05:32:29.040Z,101286.59
2023-02-06T05:34:57.100Z,101286.16
2023-02-06T05:37:25.062Z,101284.75
2023-02-06T05:39:53.021Z,101287.31
2023-02-06T05:42:21.047Z,101290.91
2023-02-06T05:44:49.106Z,101290.59
2023-02-06T05:47:18.651Z,101290.44
2023-02-06T05:49:48.417Z,101288.41
2023-02-06T05:52:16.546Z,101286.38
2023-02-06T05:54:44.760Z,101283.16
2023-02-06T05:57:14.973Z,101276.31
2023-02-06T05:59:42.906Z,101282.50
2023-02-06T06:02:11.079Z,101275.00
2023-02-06T06:04:40.394Z,101263.38
2023-02-06T06:07:09.592Z,101273.28
2023-02-06T06:09:37.559Z,101266.63
2023-02-06T06:12:05.702Z,101265.78
2023-02-06T06:14:33.745Z,101259.94
2023-02-06T06:17:01.903Z,101258.56
2023-02-06T06:19:29.815Z,101262.50
2023-02-06T06:21:59.429Z,101251.47
2023-02-06T06:24:27.830Z,101251.47
2023-02-06T06:26:55.736Z,101257.25
2023-02-06T06:29:23.706Z,101271.75
2023-02-06T06:31:51.725Z,101264.63
2023-02-06T06:34:19.814Z,101269.75
2023-02-06T06:36:47.800Z,101270.09
2023-02-06T06:39:19.865Z,101267.75
2023-02-06T06:41:47.864Z,101263.25
2023-02-06T06:44:15.812Z,101258.59
2023-02-06T06:46:43.724Z,101259.03
2023-02-06T06:49:11.726Z,101265.50
2023-02-06T06:51:39.837Z,101253.91
2023-02-06T06:54:07.914Z,101246.91
2023-02-06T06:56:37.199Z,101248.16
2023-02-06T06:59:05.187Z,101255.66
2023-02-06T07:01:35.495Z,101250.59
2023-02-06T07:04:03.479Z,101259.22
2023-02-06T07:06:34.287Z,101261.88
2023-02-06T07:09:02.472Z,101266.59
2023-02-06T07:11:30.662Z,101267.72
2023-02-06T07:14:00.216Z,101259.88
2023-02-06T07:16:28.383Z,101257.97
2023-02-06T07:18:56.438Z,101256.72
2023-02-06T07:21:24.392Z,101254.56
2023-02-06T07:23:52.384Z,101268.53
2023-02-06T07:26:20.302Z,101270.44
2023-02-06T07:28:52.802Z,101282.88
2023-02-06T07:31:22.320Z,101267.53
2023-02-06T07:33:50.497Z,101264.66
2023-02-06T07:36:19.568Z,101245.00
2023-02-06T07:38:47.565Z,101258.13
2023-02-06T07:41:16.142Z,101255.47
2023-02-06T07:43:44.087Z,101256.00
2023-02-06T07:46:12.276Z,101254.16
2023-02-06T07:48:42.518Z,101246.44
2023-02-06T07:51:11.332Z,101240.53
2023-02-06T07:53:39.692Z,101244.03
2023-02-06T07:56:12.358Z,101240.78
2023-02-06T07:58:40.266Z,101236.63
2023-02-06T08:01:08.555Z,101237.75
2023-02-06T08:03:36.925Z,101237.09
2023-02-06T08:06:10.663Z,101230.72
2023-02-06T08:08:39.127Z,101233.41
2023-02-06T08:11:07.913Z,101237.06
2023-02-06T08:13:36.666Z,101227.00
2023-02-06T08:16:07.154Z,101233.50
2023-02-06T08:18:35.434Z,101223.31
2023-02-06T08:21:03.695Z,101218.53
2023-02-06T08:23:33.562Z,101219.03
2023-02-06T08:26:06.368Z,101216.53
2023-02-06T08:28:36.078Z,101210.22
2023-02-06T08:31:10.795Z,101222.50
2023-02-06T08:33:39.016Z,101228.22
2023-02-06T08:36:11.058Z,101220.72
2023-02-06T08:38:41.276Z,101222.19
2023-02-06T08:41:17.527Z,101216.59
2023-02-06T08:43:45.847Z,101219.19
2023-02-06T08:46:14.144Z,101218.16
2023-02-06T08:48:42.246Z,101207.19
2023-02-06T08:51:11.291Z,101205.44
2023-02-06T08:53:40.900Z,101207.41
2023-02-06T08:56:11.517Z,101209.94
2023-02-06T08:58:40.201Z,101215.88
2023-02-06T09:01:09.323Z,101215.03
2023-02-06T09:03:37.966Z,101220.41
2023-02-06T09:06:10.390Z,101223.31
2023-02-06T09:08:40.459Z,101224.69
2023-02-06T09:11:10.073Z,101221.34
2023-02-06T09:13:39.300Z,101216.19
2023-02-06T09:16:08.522Z,101210.53
2023-02-06T09:18:37.097Z,101211.69
2023-02-06T09:21:08.234Z,101212.81
2023-02-06T09:23:36.302Z,101212.81
2023-02-06T09:26:06.366Z,101206.38
2023-02-06T09:28:34.699Z,101206.56
2023-02-06T09:31:03.027Z,101204.59
2023-02-06T09:33:31.581Z,101205.22
2023-02-06T09:36:04.915Z,101204.81
2023-02-06T09:38:33.092Z,101205.25
2023-02-06T09:41:03.345Z,101212.59
2023-02-06T09:43:34.404Z,101218.84
2023-02-06T09:46:06.183Z,101213.13
2023-02-06T09:48:37.642Z,101205.78
2023-02-06T09:51:16.232Z,101213.66
2023-02-06T09:53:54.392Z,101206.47
2023-02-06T09:56:33.889Z,101202.78
2023-02-06T09:59:10.931Z,101195.38
2023-02-06T10:01:45.465Z,101188.75
2023-02-06T10:04:36.710Z,101187.38
2023-02-06T10:07:19.175Z,101185.88
2023-02-06T10:09:52.028Z,101191.84
2023-02-06T10:12:26.105Z,101192.03
2023-02-06T10:15:00.530Z,101191.56
2023-02-06T10:17:32.344Z,101189.69
2023-02-06T10:20:05.409Z,101182.25
2023-02-06T10:22:42.049Z,101182.47
2023-02-06T10:25:22.490Z,101188.28
2023-02-06T10:28:03.401Z,101185.03
2023-02-06T10:30:53.786Z,101182.31
2023-02-06T10:33:29.512Z,101175.31
2023-02-06T10:36:07.860Z,101186.66
2023-02-06T10:39:10.239Z,101173.31
2023-02-06T10:41:47.492Z,101179.44
2023-02-06T10:44:23.014Z,101181.44
2023-02-06T10:46:55.877Z,101185.41
2023-02-06T10:49:30.524Z,101185.59
2023-02-06T10:52:01.775Z,101186.91
2023-02-06T10:54:34.893Z,101189.19
2023-02-06T10:57:04.248Z,101186.69
2023-02-06T10:59:35.907Z,101169.34
2023-02-06T11:02:24.909Z,101167.06
2023-02-06T11:04:57.355Z,101155.41
2023-02-06T11:07:30.102Z,101165.63
2023-02-06T11:09:58.316Z,101156.66
2023-02-06T11:12:34.355Z,101155.00
2023-02-06T11:15:07.851Z,101154.44
2023-02-06T11:17:37.808Z,101153.88
2023-02-06T11:20:22.029Z,101151.97
2023-02-06T11:22:53.292Z,101143.47
2023-02-06T11:25:28.172Z,101147.19
2023-02-06T11:27:57.710Z,101152.34
2023-02-06T11:30:33.594Z,101142.66
2023-02-06T11:33:06.936Z,101138.28
2023-02-06T11:35:40.149Z,101134.97
2023-02-06T11:38:19.424Z,101142.59
2023-02-06T11:40:56.633Z,101142.84
2023-02-06T11:43:26.329Z,101138.41
2023-02-06T11:46:08.891Z,101119.88
2023-02-06T11:48:40.900Z,101129.91
2023-02-06T11:51:10.330Z,101107.50
2023-02-06T11:53:39.144Z,101114.88
2023-02-06T11:56:17.474Z,101111.66
2023-02-06T11:58:46.188Z,101110.88
2023-02-06T12:01:21.699Z,101122.88
2023-02-06T12:04:00.123Z,101104.94
2023-02-06T12:06:33.255Z,101099.19
2023-02-06T12:09:03.265Z,101089.88
2023-02-06T12:11:36.518Z,101099.84
2023-02-06T12:14:10.790Z,101104.56
2023-02-06T12:16:42.893Z,101099.84
2023-02-06T12:19:18.417Z,101096.81
2023-02-06T12:21:51.124Z,101081.75
2023-02-06T12:24:28.769Z,101095.41
2023-02-06T12:26:59.156Z,101098.34
2023-02-06T12:29:33.698Z,101094.84
2023-02-06T12:32:14.805Z,101089.78
2023-02-06T12:34:54.054Z,101102.50
2023-02-06T12:37:32.548Z,101089.94
2023-02-06T12:40:01.923Z,101085.81
2023-02-06T12:42:39.792Z,101085.94
2023-02-06T12:45:17.677Z,101081.41
2023-02-06T12:47:50.229Z,101074.78
2023-02-06T12:50:24.945Z,101066.16
2023-02-06T12:52:59.884Z,101059.47
2023-02-06T12:55:31.876Z,101053.53
2023-02-06T12:58:00.508Z,101050.47
2023-02-06T13:00:49.635Z,101055.03
2023-02-06T13:03:24.998Z,101043.34
2023-02-06T13:06:04.204Z,101036.78
2023-02-06T13:08:42.496Z,101032.88
2023-02-06T13:11:24.009Z,101033.56
2023-02-06T13:14:01.671Z,101037.03
2023-02-06T13:16:51.922Z,101033.13
2023-02-06T13:19:27.751Z,101025.78
2023-02-06T13:22:44.841Z,101025.66
2023-02-06T13:25:51.189Z,101008.31
2023-02-06T13:28:46.589Z,101008.44
2023-02-06T13:31:30.711Z,101006.38
2023-02-06T13:34:07.257Z,101001.16
2023-02-06T13:36:53.936Z,100996.59
2023-02-06T13:39:29.876Z,101007.28
2023-02-06T13:42:01.121Z,101002.63
2023-02-06T13:44:33.759Z,101007.09
2023-02-06T13:47:26.189Z,101000.44
2023-02-06T13:50:26.225Z,100992.66
2023-02-06T13:53:16.018Z,100987.09
2023-02-06T13:55:58.964Z,100999.69
2023-02-06T13:58:45.944Z,100996.28
2023-02-06T14:01:17.760Z,100978.44
2023-02-06T14:03:49.814Z,100976.66
2023-02-06T14:06:39.697Z,100975.53
2023-02-06T14:09:30.778Z,100985.09
2023-02-06T14:12:30.610Z,100980.66
2023-02-06T14:15:09.351Z,100956.34
2023-02-06T14:17:49.274Z,100964.03
2023-02-06T14:20:38.053Z,100960.97
2023-02-06T14:23:15.831Z,100959.19
2023-02-06T14:25:55.382Z,100968.28
2023-02-06T14:28:35.785Z,100959.63
2023-02-06T14:31:13.120Z,100958.19
2023-02-06T14:34:05.348Z,100959.13
2023-02-06T14:37:10.270Z,100955.91
2023-02-06T14:39:45.217Z,100950.22
2023-02-06T14:42:18.479Z,100945.31
2023-02-06T14:44:54.057Z,100945.97
2023-02-06T14:47:26.329Z,100943.78
2023-02-06T14:49:56.324Z,100940.97
2023-02-06T14:52:28.545Z,100935.53
2023-02-06T14:54:57.615Z,100945.38
2023-02-06T14:57:29.327Z,100941.56
2023-02-06T15:00:01.255Z,100926.25
2023-02-06T15:02:32.176Z,100931.41
2023-02-06T15:05:03.521Z,100922.84
2023-02-06T15:07:34.466Z,100940.13
2023-02-06T15:10:09.369Z,100930.22
2023-02-06T15:12:40.561Z,100924.47
2023-02-06T15:15:22.028Z,100930.13
2023-02-06T15:18:01.401Z,100922.41
2023-02-06T15:20:34.984Z,100926.91
2023-02-06T15:23:17.847Z,100924.81
2023-02-06T15:26:05.226Z,100927.50
2023-02-06T15:28:35.423Z,100931.03
2023-02-06T15:31:05.467Z,100926.53
2023-02-06T15:33:35.957Z,100925.31
2023-02-06T15:36:05.457Z,100923.94
2023-02-06T15:38:34.783Z,100929.97
2023-02-06T15:41:06.799Z,100924.28
2023-02-06T15:43:36.681Z,100927.03
2023-02-06T15:46:07.254Z,100919.38
2023-02-06T15:48:39.718Z,100935.78
2023-02-06T15:51:20.613Z,100925.56
2023-02-06T15:53:50.708Z,100926.41
2023-02-06T15:56:24.439Z,100924.31
2023-02-06T15:58:58.865Z,100923.63
2023-02-06T16:01:32.062Z,100932.38
2023-02-06T16:04:04.867Z,100933.41
2023-02-06T16:06:33.192Z,100933.28
2023-02-06T16:09:06.501Z,100931.47
2023-02-06T16:11:51.284Z,100928.31
2023-02-06T16:14:24.563Z,100926.44
2023-02-06T16:17:02.872Z,100931.09
2023-02-06T16:19:46.419Z,100926.13
2023-02-06T16:22:20.294Z,100922.97
2023-02-06T16:24:48.858Z,100899.69
2023-02-06T16:27:19.920Z,100933.66
2023-02-06T16:29:51.102Z,100930.97
2023-02-06T16:32:24.862Z,100927.22
2023-02-06T16:34:53.695Z,100928.91
2023-02-06T16:37:23.886Z,100932.78
2023-02-06T16:39:52.200Z,100935.47
2023-02-06T16:42:23.049Z,100935.09
2023-02-06T16:44:55.984Z,100930.75
2023-02-06T16:47:25.554Z,100948.94
2023-02-06T16:49:53.767Z,100959.78
2023-02-06T16:52:25.547Z,100950.00
2023-02-06T16:54:55.751Z,100946.59
2023-02-06T16:57:30.978Z,100949.13
2023-02-06T16:59:59.094Z,100945.75
2023-02-06T17:02:29.833Z,100956.31
2023-02-06T17:04:57.869Z,100957.13
2023-02-06T17:07:28.447Z,100958.59
2023-02-06T17:09:57.424Z,100963.44
2023-02-06T17:12:25.744Z,100959.09
2023-02-06T17:14:53.880Z,100967.19
2023-02-06T17:17:23.956Z,100969.69
2023-02-06T17:19:54.442Z,100969.94
2023-02-06T17:22:22.603Z,100970.16
2023-02-06T17:24:50.649Z,100966.34
2023-02-06T17:27:20.827Z,100973.94
2023-02-06T17:29:49.948Z,100969.56
2023-02-06T17:32:22.182Z,100979.69
2023-02-06T17:34:54.403Z,100977.94
2023-02-06T17:37:22.625Z,100989.66
2023-02-06T17:39:52.056Z,100997.72
2023-02-06T17:42:22.028Z,100994.75
2023-02-06T17:44:50.602Z,100988.16
2023-02-06T17:47:18.728Z,100986.97
2023-02-06T17:49:47.851Z,100992.84
2023-02-06T17:52:17.577Z,101002.44
2023-02-06T17:54:46.038Z,100997.78
2023-02-06T17:57:14.553Z,100996.94
2023-02-06T17:59:42.856Z,101001.31
2023-02-06T18:02:14.392Z,101001.72
2023-02-06T18:04:42.369Z,101004.09
2023-02-06T18:07:10.826Z,100995.16
2023-02-06T18:09:42.066Z,101009.72
2023-02-06T18:12:10.497Z,101000.75
2023-02-06T18:14:41.234Z,101006.47
2023-02-06T18:17:10.847Z,101004.56
2023-02-06T18:19:42.471Z,101005.41
2023-02-06T18:22:12.172Z,101000.41
2023-02-06T18:24:41.779Z,101000.53
2023-02-06T18:27:10.752Z,101004.53
2023-02-06T18:29:49.438Z,101005.38
2023-02-06T18:32:19.308Z,101001.03
2023-02-06T18:34:48.173Z,101001.81
2023-02-06T18:37:16.378Z,101004.66
2023-02-06T18:39:45.723Z,101000.81
2023-02-06T18:42:31.637Z,101004.47
2023-02-06T18:44:59.677Z,101011.88
2023-02-06T18:47:27.870Z,101015.22
2023-02-06T18:49:56.063Z,101012.66
2023-02-06T18:52:24.056Z,101012.84
2023-02-06T18:54:53.555Z,101014.00
2023-02-06T18:57:21.669Z,101006.94
2023-02-06T18:59:49.615Z,101008.94
2023-02-06T19:02:20.509Z,101000.03
2023-02-06T19:04:48.782Z,101002.00
2023-02-06T19:07:19.500Z,100998.31
2023-02-06T19:09:47.724Z,100997.38
2023-02-06T19:12:17.472Z,100995.28
2023-02-06T19:14:45.433Z,100990.09
2023-02-06T19:17:13.598Z,100992.84
2023-02-06T19:19:41.770Z,100988.56
2023-02-06T19:22:10.074Z,100990.19
2023-02-06T19:24:38.016Z,100984.22
2023-02-06T19:27:06.092Z,100990.47
2023-02-06T19:29:36.727Z,100993.78
2023-02-06T19:32:06.817Z,101002.50
2023-02-06T19:34:36.290Z,101003.06
2023-02-06T19:37:04.940Z,101005.53
2023-02-06T19:39:34.441Z,100993.31
2023-02-06T19:42:04.596Z,100994.16
2023-02-06T19:44:35.701Z,101001.34
2023-02-06T19:47:03.710Z,100998.03
2023-02-06T19:49:32.090Z,100998.69
2023-02-06T19:52:00.469Z,101000.56
2023-02-06T19:54:28.767Z,100989.75
2023-02-06T19:56:56.717Z,100990.53
2023-02-06T19:59:29.912Z,100992.91
2023-02-06T20:02:00.307Z,100983.34
2023-02-06T20:04:32.394Z,101001.13
2023-02-06T20:07:01.782Z,100998.84
2023-02-06T20:09:30.867Z,100997.06
2023-02-06T20:11:59.280Z,100996.69
2023-02-06T20:14:28.037Z,100991.22
2023-02-06T20:16:56.616Z,100998.31
2023-02-06T20:19:27.893Z,100998.00
2023-02-06T20:21:57.742Z,100993.41
2023-02-06T20:24:28.206Z,100995.88
2023-02-06T20:26:58.210Z,100984.97
2023-02-06T20:29:28.922Z,100989.50
2023-02-06T20:31:57.324Z,100989.13
2023-02-06T20:34:27.613Z,100985.72
2023-02-06T20:36:56.045Z,100987.03
2023-02-06T20:39:28.735Z,100985.47
2023-02-06T20:42:00.087Z,100988.69
2023-02-06T20:44:28.652Z,100980.09
2023-02-06T20:46:56.811Z,100978.97
2023-02-06T20:49:28.739Z,100983.38
2023-02-06T20:51:56.895Z,100983.00
2023-02-06T20:54:26.082Z,100983.97
2023-02-06T20:56:54.700Z,100979.59
2023-02-06T20:59:23.103Z,100980.53
2023-02-06T21:01:51.025Z,100968.41
2023-02-06T21:04:19.854Z,100977.78
2023-02-06T21:06:50.095Z,100969.34
2023-02-06T21:09:19.291Z,100963.38
2023-02-06T21:11:51.086Z,100968.22
2023-02-06T21:14:19.564Z,100959.19
2023-02-06T21:16:47.936Z,100957.56
2023-02-06T21:19:21.373Z,100952.88
2023-02-06T21:21:51.189Z,100934.28
2023-02-06T21:24:19.396Z,100950.41
2023-02-06T21:26:47.362Z,100949.47
2023-02-06T21:29:16.252Z,100938.03
2023-02-06T21:31:44.823Z,100949.75
2023-02-06T21:34:15.059Z,100957.97
2023-02-06T21:36:43.570Z,100959.81
2023-02-06T21:39:17.592Z,100952.16
2023-02-06T21:41:46.718Z,100954.34
2023-02-06T21:44:14.739Z,100949.91
2023-02-06T21:46:45.592Z,100946.91
2023-02-06T21:49:16.392Z,100950.41
2023-02-06T21:51:44.423Z,100949.22
2023-02-06T21:54:13.783Z,100943.84
2023-02-06T21:56:41.788Z,100942.63
2023-02-06T21:59:11.370Z,100938.97
2023-02-06T22:01:41.007Z,100936.34
2023-02-06T22:04:10.720Z,100922.66
2023-02-06T22:06:39.266Z,100931.88
2023-02-06T22:09:09.660Z,100916.34
2023-02-06T22:11:40.824Z,100911.00
2023-02-06T22:14:12.708Z,100917.22
2023-02-06T22:16:41.796Z,100915.16
2023-02-06T22:19:11.134Z,100909.03
2023-02-06T22:21:39.231Z,100908.53
2023-02-06T22:24:09.204Z,100902.31
2023-02-06T22:26:41.631Z,100903.28
2023-02-06T22:29:13.683Z,100905.06
2023-02-06T22:31:43.434Z,100905.78
2023-02-06T22:34:15.588Z,100904.78
2023-02-06T22:36:44.616Z,100908.19
2023-02-06T22:39:13.893Z,100909.69
2023-02-06T22:41:44.897Z,100904.06
2023-02-06T22:44:16.493Z,100912.94
2023-02-06T22:46:46.312Z,100897.78
2023-02-06T22:49:14.847Z,100909.78
2023-02-06T22:51:43.459Z,100906.56
2023-02-06T22:54:11.442Z,100902.38
2023-02-06T22:56:41.154Z,100906.13
2023-02-06T22:59:12.057Z,100895.66
2023-02-06T23:01:41.608Z,100885.50
2023-02-06T23:04:12.573Z,100889.59
2023-02-06T23:06:40.604Z,100890.03
2023-02-06T23:09:09.858Z,100878.59
2023-02-06T23:11:37.801Z,100879.03
2023-02-06T23:14:07.002Z,100874.63
2023-02-06T23:16:37.100Z,100874.78
2023-02-06T23:19:06.976Z,100874.25
2023-02-06T23:21:37.142Z,100880.56
2023-02-06T23:24:06.302Z,100877.16
2023-02-06T23:26:34.735Z,100879.28
2023-02-06T23:29:05.133Z,100874.75
2023-02-06T23:31:33.655Z,100873.38
2023-02-06T23:34:03.276Z,100882.13
2023-02-06T23:36:31.411Z,100885.88
2023-02-06T23:39:02.328Z,100879.75
2023-02-06T23:41:30.957Z,100877.88
2023-02-06T23:44:03.774Z,100876.00
2023-02-06T23:46:34.544Z,100875.81
2023-02-06T23:49:04.288Z,100876.38
2023-02-06T23:51:33.014Z,100873.16
2023-02-06T23:54:01.371Z,100872.38
2023-02-06T23:56:31.378Z,100877.66
2023-02-06T23:59:01.246Z,100863.75
